Overview Statistics Trail Chart Weather Telemetry Raw packets
 

This is the latest recevied weather packets stored in our database for station/object KK7ZBX. If no packets are shown the sender has not sent any weather packets the latest 10 day(s).

<< 1 2 3 4 >>
Time Temp. Humidity Pressure Rain* Wind** Luminosity Snow
1788381009 18.33° C 65% 1004.9 hPa - - - -
1788377434 21.67° C 54% 1005 hPa - - - -
1788373822 20° C 61% 1005.4 hPa - - - -
1788372015 20° C 62% 1005.9 hPa - - - -
1788366611 18.89° C 68% 1006.5 hPa - - - -
1788364831 17.78° C 72% 1006.8 hPa - - - -
1788357612 15.56° C 79% 1007.8 hPa - - - -
1788355809 15.56° C 79% 1007.9 hPa - - - -
1788348629 15.56° C 80% 1008.6 hPa - - - -
1788346816 15.56° C 79% 1008.8 hPa - - - -
1788345021 15.56° C 79% 1009 hPa - - - -
1788341411 16.67° C 77% 1009.1 hPa - - - -
1788337834 16.67° C 76% 1009.7 hPa - - - -
1788330608 16.67° C 75% 1010.2 hPa - - - -
1788327013 16.67° C 75% 1010.4 hPa - - - -
1788325229 16.67° C 73% 1010.4 hPa - - - -
1788319810 18.33° C 66% 1010.2 hPa - - - -
1788318030 18.89° C 66% 1010 hPa - - - -
1788316211 18.89° C 64% 1009.8 hPa - - - -
1788310819 20° C 62% 1009.9 hPa - - - -
1788307233 20° C 62% 1009.9 hPa - - - -
1788305432 20° C 63% 1009.8 hPa - - - -
1788303632 20° C 63% 1010 hPa - - - -
1788301806 20° C 63% 1010 hPa - - - -
1788296409 21.67° C 61% 1010.2 hPa - - - -

* Rain since midnight (hover to see other rain measurements)
** Current wind speed in m/s (hover to see current wind gust speed)